sensor_id;sensor_type;location;lat;lon;timestamp;P1;durP1;ratioP1;P2;durP2;ratioP2
2646;SDS011;1333;50.958;6.770;2024-03-17T00:01:36;7.50;;;4.07;;
2646;SDS011;1333;50.958;6.770;2024-03-17T00:04:02;7.00;;;4.43;;
2646;SDS011;1333;50.958;6.770;2024-03-17T00:06:28;5.30;;;3.47;;
2646;SDS011;1333;50.958;6.770;2024-03-17T00:08:54;3.73;;;2.97;;
2646;SDS011;1333;50.958;6.770;2024-03-17T00:11:20;3.97;;;3.23;;
2646;SDS011;1333;50.958;6.770;2024-03-17T00:13:46;3.20;;;2.90;;
2646;SDS011;1333;50.958;6.770;2024-03-17T00:16:12;4.30;;;3.40;;
2646;SDS011;1333;50.958;6.770;2024-03-17T00:18:38;4.67;;;3.10;;
2646;SDS011;1333;50.958;6.770;2024-03-17T00:21:04;10.90;;;3.80;;
2646;SDS011;1333;50.958;6.770;2024-03-17T00:23:30;5.70;;;3.10;;
2646;SDS011;1333;50.958;6.770;2024-03-17T00:25:55;3.57;;;3.23;;
2646;SDS011;1333;50.958;6.770;2024-03-17T00:28:21;6.90;;;4.30;;
2646;SDS011;1333;50.958;6.770;2024-03-17T00:30:47;5.27;;;4.40;;
2646;SDS011;1333;50.958;6.770;2024-03-17T00:33:12;8.03;;;4.63;;
2646;SDS011;1333;50.958;6.770;2024-03-17T00:35:39;4.90;;;3.97;;
2646;SDS011;1333;50.958;6.770;2024-03-17T00:38:04;4.37;;;3.60;;
2646;SDS011;1333;50.958;6.770;2024-03-17T00:40:35;5.07;;;4.50;;
2646;SDS011;1333;50.958;6.770;2024-03-17T00:43:04;6.07;;;4.07;;
2646;SDS011;1333;50.958;6.770;2024-03-17T00:45:29;3.83;;;3.33;;
2646;SDS011;1333;50.958;6.770;2024-03-17T00:47:55;3.80;;;3.00;;
2646;SDS011;1333;50.958;6.770;2024-03-17T00:50:20;4.23;;;3.83;;
2646;SDS011;1333;50.958;6.770;2024-03-17T00:52:46;3.87;;;3.50;;
2646;SDS011;1333;50.958;6.770;2024-03-17T00:55:11;3.80;;;3.40;;
2646;SDS011;1333;50.958;6.770;2024-03-17T00:57:39;5.47;;;3.47;;
2646;SDS011;1333;50.958;6.770;2024-03-17T01:00:05;5.77;;;4.20;;
2646;SDS011;1333;50.958;6.770;2024-03-17T01:02:31;6.67;;;4.30;;
2646;SDS011;1333;50.958;6.770;2024-03-17T01:04:56;5.40;;;4.43;;
2646;SDS011;1333;50.958;6.770;2024-03-17T01:07:22;3.73;;;3.23;;
2646;SDS011;1333;50.958;6.770;2024-03-17T01:09:47;6.53;;;4.33;;
2646;SDS011;1333;50.958;6.770;2024-03-17T01:12:13;6.10;;;4.00;;
2646;SDS011;1333;50.958;6.770;2024-03-17T01:14:39;4.80;;;3.60;;
2646;SDS011;1333;50.958;6.770;2024-03-17T01:17:05;4.10;;;3.73;;
2646;SDS011;1333;50.958;6.770;2024-03-17T01:19:31;6.30;;;3.97;;
2646;SDS011;1333;50.958;6.770;2024-03-17T01:21:57;5.00;;;3.63;;
2646;SDS011;1333;50.958;6.770;2024-03-17T01:24:24;4.90;;;3.90;;
2646;SDS011;1333;50.958;6.770;2024-03-17T01:26:50;6.00;;;4.90;;
2646;SDS011;1333;50.958;6.770;2024-03-17T01:29:16;5.40;;;4.30;;
2646;SDS011;1333;50.958;6.770;2024-03-17T01:31:41;6.10;;;4.87;;
2646;SDS011;1333;50.958;6.770;2024-03-17T01:34:07;11.63;;;5.00;;
2646;SDS011;1333;50.958;6.770;2024-03-17T01:36:32;7.07;;;5.70;;
2646;SDS011;1333;50.958;6.770;2024-03-17T01:38:58;9.67;;;5.73;;
2646;SDS011;1333;50.958;6.770;2024-03-17T01:41:24;5.87;;;5.13;;
2646;SDS011;1333;50.958;6.770;2024-03-17T01:43:50;5.97;;;4.47;;
2646;SDS011;1333;50.958;6.770;2024-03-17T01:46:16;5.93;;;4.87;;
2646;SDS011;1333;50.958;6.770;2024-03-17T01:48:43;6.00;;;5.00;;
2646;SDS011;1333;50.958;6.770;2024-03-17T01:51:10;10.27;;;5.70;;
2646;SDS011;1333;50.958;6.770;2024-03-17T01:53:37;7.43;;;5.00;;
2646;SDS011;1333;50.958;6.770;2024-03-17T01:56:05;6.33;;;4.43;;
2646;SDS011;1333;50.958;6.770;2024-03-17T01:58:33;4.17;;;3.83;;
2646;SDS011;1333;50.958;6.770;2024-03-17T02:00:59;10.03;;;4.87;;
2646;SDS011;1333;50.958;6.770;2024-03-17T02:03:25;5.10;;;4.17;;
2646;SDS011;1333;50.958;6.770;2024-03-17T02:05:50;11.90;;;5.07;;
2646;SDS011;1333;50.958;6.770;2024-03-17T02:08:16;6.50;;;4.20;;
2646;SDS011;1333;50.958;6.770;2024-03-17T02:10:41;9.10;;;5.50;;
2646;SDS011;1333;50.958;6.770;2024-03-17T02:13:07;6.17;;;4.50;;
2646;SDS011;1333;50.958;6.770;2024-03-17T02:15:32;5.53;;;4.47;;
2646;SDS011;1333;50.958;6.770;2024-03-17T02:17:58;7.27;;;4.80;;
2646;SDS011;1333;50.958;6.770;2024-03-17T02:20:24;7.00;;;5.10;;
2646;SDS011;1333;50.958;6.770;2024-03-17T02:23:10;12.97;;;4.87;;
2646;SDS011;1333;50.958;6.770;2024-03-17T02:25:36;7.97;;;4.40;;
2646;SDS011;1333;50.958;6.770;2024-03-17T02:28:02;7.23;;;4.47;;
2646;SDS011;1333;50.958;6.770;2024-03-17T02:30:29;6.13;;;4.70;;
2646;SDS011;1333;50.958;6.770;2024-03-17T02:32:55;6.03;;;4.37;;
2646;SDS011;1333;50.958;6.770;2024-03-17T02:35:21;9.20;;;4.50;;
2646;SDS011;1333;50.958;6.770;2024-03-17T02:37:50;11.13;;;4.67;;
2646;SDS011;1333;50.958;6.770;2024-03-17T02:40:15;11.80;;;5.30;;
2646;SDS011;1333;50.958;6.770;2024-03-17T02:42:42;6.47;;;4.73;;
2646;SDS011;1333;50.958;6.770;2024-03-17T02:45:09;5.87;;;3.83;;
2646;SDS011;1333;50.958;6.770;2024-03-17T02:47:36;7.23;;;5.00;;
2646;SDS011;1333;50.958;6.770;2024-03-17T02:50:02;4.83;;;4.10;;
2646;SDS011;1333;50.958;6.770;2024-03-17T02:52:29;4.50;;;4.10;;
2646;SDS011;1333;50.958;6.770;2024-03-17T02:54:55;7.57;;;4.80;;
2646;SDS011;1333;50.958;6.770;2024-03-17T02:57:20;8.03;;;4.70;;
2646;SDS011;1333;50.958;6.770;2024-03-17T02:59:49;4.97;;;4.10;;
2646;SDS011;1333;50.958;6.770;2024-03-17T03:02:15;5.93;;;4.13;;
2646;SDS011;1333;50.958;6.770;2024-03-17T03:04:41;4.43;;;3.67;;
2646;SDS011;1333;50.958;6.770;2024-03-17T03:07:06;7.53;;;3.77;;
2646;SDS011;1333;50.958;6.770;2024-03-17T03:09:31;3.90;;;2.97;;
2646;SDS011;1333;50.958;6.770;2024-03-17T03:11:58;6.40;;;4.57;;
2646;SDS011;1333;50.958;6.770;2024-03-17T03:14:24;6.67;;;5.27;;
2646;SDS011;1333;50.958;6.770;2024-03-17T03:16:50;5.30;;;4.27;;
2646;SDS011;1333;50.958;6.770;2024-03-17T03:19:16;6.53;;;4.13;;
2646;SDS011;1333;50.958;6.770;2024-03-17T03:21:41;4.60;;;3.00;;
2646;SDS011;1333;50.958;6.770;2024-03-17T03:24:07;5.70;;;3.90;;
2646;SDS011;1333;50.958;6.770;2024-03-17T03:26:32;5.87;;;4.60;;
2646;SDS011;1333;50.958;6.770;2024-03-17T03:28:58;8.90;;;3.90;;
2646;SDS011;1333;50.958;6.770;2024-03-17T03:31:24;5.30;;;3.20;;
2646;SDS011;1333;50.958;6.770;2024-03-17T03:33:49;5.60;;;3.80;;
2646;SDS011;1333;50.958;6.770;2024-03-17T03:36:15;5.40;;;3.83;;
2646;SDS011;1333;50.958;6.770;2024-03-17T03:38:45;5.70;;;3.43;;
2646;SDS011;1333;50.958;6.770;2024-03-17T03:41:13;6.43;;;3.93;;
2646;SDS011;1333;50.958;6.770;2024-03-17T03:43:39;4.30;;;3.20;;
2646;SDS011;1333;50.958;6.770;2024-03-17T03:46:06;4.90;;;4.40;;
2646;SDS011;1333;50.958;6.770;2024-03-17T03:48:32;6.40;;;4.30;;
2646;SDS011;1333;50.958;6.770;2024-03-17T03:50:59;3.23;;;2.93;;
2646;SDS011;1333;50.958;6.770;2024-03-17T03:53:34;4.80;;;3.90;;
2646;SDS011;1333;50.958;6.770;2024-03-17T03:56:02;4.43;;;3.67;;
2646;SDS011;1333;50.958;6.770;2024-03-17T03:58:31;3.87;;;3.10;;
2646;SDS011;1333;50.958;6.770;2024-03-17T04:00:59;4.20;;;3.80;;
2646;SDS011;1333;50.958;6.770;2024-03-17T04:03:25;4.10;;;3.70;;
2646;SDS011;1333;50.958;6.770;2024-03-17T04:05:50;13.03;;;3.80;;
2646;SDS011;1333;50.958;6.770;2024-03-17T04:08:18;4.73;;;4.07;;
2646;SDS011;1333;50.958;6.770;2024-03-17T04:10:44;4.23;;;3.83;;
2646;SDS011;1333;50.958;6.770;2024-03-17T04:13:09;4.20;;;3.50;;
2646;SDS011;1333;50.958;6.770;2024-03-17T04:15:35;4.90;;;3.63;;
2646;SDS011;1333;50.958;6.770;2024-03-17T04:18:02;3.30;;;3.00;;
2646;SDS011;1333;50.958;6.770;2024-03-17T04:20:28;3.83;;;3.07;;
2646;SDS011;1333;50.958;6.770;2024-03-17T04:22:54;4.33;;;3.63;;
2646;SDS011;1333;50.958;6.770;2024-03-17T04:25:19;4.40;;;3.60;;
2646;SDS011;1333;50.958;6.770;2024-03-17T04:27:45;6.03;;;3.27;;
2646;SDS011;1333;50.958;6.770;2024-03-17T04:30:10;6.87;;;4.50;;
2646;SDS011;1333;50.958;6.770;2024-03-17T04:32:36;5.40;;;4.60;;
2646;SDS011;1333;50.958;6.770;2024-03-17T04:35:02;3.67;;;3.23;;
2646;SDS011;1333;50.958;6.770;2024-03-17T04:37:28;5.60;;;4.07;;
2646;SDS011;1333;50.958;6.770;2024-03-17T04:39:53;4.87;;;3.60;;
2646;SDS011;1333;50.958;6.770;2024-03-17T04:42:22;4.53;;;4.13;;
2646;SDS011;1333;50.958;6.770;2024-03-17T04:44:47;4.10;;;3.70;;
2646;SDS011;1333;50.958;6.770;2024-03-17T04:47:13;4.83;;;3.90;;
2646;SDS011;1333;50.958;6.770;2024-03-17T04:49:39;4.13;;;3.83;;
2646;SDS011;1333;50.958;6.770;2024-03-17T04:52:06;7.73;;;4.10;;
2646;SDS011;1333;50.958;6.770;2024-03-17T04:54:32;4.40;;;4.00;;
2646;SDS011;1333;50.958;6.770;2024-03-17T04:56:58;3.47;;;3.00;;
2646;SDS011;1333;50.958;6.770;2024-03-17T04:59:24;5.53;;;4.40;;
2646;SDS011;1333;50.958;6.770;2024-03-17T05:01:50;4.87;;;3.47;;
2646;SDS011;1333;50.958;6.770;2024-03-17T05:04:16;5.27;;;4.37;;
2646;SDS011;1333;50.958;6.770;2024-03-17T05:06:42;5.30;;;3.60;;
2646;SDS011;1333;50.958;6.770;2024-03-17T05:09:11;4.13;;;3.73;;
2646;SDS011;1333;50.958;6.770;2024-03-17T05:11:42;7.10;;;3.50;;
2646;SDS011;1333;50.958;6.770;2024-03-17T05:14:07;5.70;;;4.20;;
2646;SDS011;1333;50.958;6.770;2024-03-17T05:16:33;4.93;;;3.60;;
2646;SDS011;1333;50.958;6.770;2024-03-17T05:18:59;4.67;;;4.13;;
2646;SDS011;1333;50.958;6.770;2024-03-17T05:21:25;8.13;;;3.60;;
2646;SDS011;1333;50.958;6.770;2024-03-17T05:23:51;4.57;;;4.17;;
2646;SDS011;1333;50.958;6.770;2024-03-17T05:26:17;4.87;;;3.50;;
2646;SDS011;1333;50.958;6.770;2024-03-17T05:28:43;6.50;;;4.63;;
2646;SDS011;1333;50.958;6.770;2024-03-17T05:31:09;3.73;;;3.23;;
2646;SDS011;1333;50.958;6.770;2024-03-17T05:33:35;5.13;;;4.03;;
2646;SDS011;1333;50.958;6.770;2024-03-17T05:36:02;10.93;;;4.63;;
2646;SDS011;1333;50.958;6.770;2024-03-17T05:38:28;4.37;;;3.83;;
2646;SDS011;1333;50.958;6.770;2024-03-17T05:41:05;4.30;;;3.90;;
2646;SDS011;1333;50.958;6.770;2024-03-17T05:43:32;4.57;;;4.13;;
2646;SDS011;1333;50.958;6.770;2024-03-17T05:46:02;5.43;;;3.40;;
2646;SDS011;1333;50.958;6.770;2024-03-17T05:48:39;5.87;;;3.80;;
2646;SDS011;1333;50.958;6.770;2024-03-17T05:51:05;4.63;;;3.53;;
2646;SDS011;1333;50.958;6.770;2024-03-17T05:53:31;5.03;;;3.57;;
2646;SDS011;1333;50.958;6.770;2024-03-17T05:56:03;6.87;;;4.00;;
2646;SDS011;1333;50.958;6.770;2024-03-17T05:58:29;4.03;;;3.50;;
2646;SDS011;1333;50.958;6.770;2024-03-17T06:00:55;6.50;;;4.17;;
2646;SDS011;1333;50.958;6.770;2024-03-17T06:03:20;4.80;;;3.80;;
2646;SDS011;1333;50.958;6.770;2024-03-17T06:05:46;4.50;;;3.80;;
2646;SDS011;1333;50.958;6.770;2024-03-17T06:08:13;8.20;;;4.43;;
2646;SDS011;1333;50.958;6.770;2024-03-17T06:10:43;3.90;;;3.50;;
2646;SDS011;1333;50.958;6.770;2024-03-17T06:13:10;3.73;;;3.30;;
2646;SDS011;1333;50.958;6.770;2024-03-17T06:15:40;5.03;;;4.47;;
2646;SDS011;1333;50.958;6.770;2024-03-17T06:18:06;4.33;;;3.40;;
2646;SDS011;1333;50.958;6.770;2024-03-17T06:20:39;6.60;;;3.70;;
2646;SDS011;1333;50.958;6.770;2024-03-17T06:23:11;6.83;;;3.77;;
2646;SDS011;1333;50.958;6.770;2024-03-17T06:25:41;4.07;;;3.67;;
2646;SDS011;1333;50.958;6.770;2024-03-17T06:28:09;5.00;;;3.87;;
2646;SDS011;1333;50.958;6.770;2024-03-17T06:30:38;4.50;;;4.10;;
2646;SDS011;1333;50.958;6.770;2024-03-17T06:33:10;4.73;;;3.17;;
2646;SDS011;1333;50.958;6.770;2024-03-17T06:35:37;4.87;;;4.33;;
2646;SDS011;1333;50.958;6.770;2024-03-17T06:38:02;5.63;;;3.50;;
2646;SDS011;1333;50.958;6.770;2024-03-17T06:40:28;5.90;;;4.33;;
2646;SDS011;1333;50.958;6.770;2024-03-17T06:42:54;6.30;;;4.77;;
2646;SDS011;1333;50.958;6.770;2024-03-17T06:45:19;4.30;;;3.70;;
2646;SDS011;1333;50.958;6.770;2024-03-17T06:47:49;8.03;;;4.60;;
2646;SDS011;1333;50.958;6.770;2024-03-17T06:50:14;6.73;;;4.30;;
2646;SDS011;1333;50.958;6.770;2024-03-17T06:52:40;4.53;;;3.63;;
2646;SDS011;1333;50.958;6.770;2024-03-17T06:55:06;5.93;;;4.40;;
2646;SDS011;1333;50.958;6.770;2024-03-17T06:57:32;4.73;;;4.00;;
2646;SDS011;1333;50.958;6.770;2024-03-17T07:00:02;4.03;;;3.73;;
2646;SDS011;1333;50.958;6.770;2024-03-17T07:02:31;7.57;;;3.93;;
2646;SDS011;1333;50.958;6.770;2024-03-17T07:04:57;6.07;;;3.97;;
2646;SDS011;1333;50.958;6.770;2024-03-17T07:07:23;5.30;;;4.80;;
2646;SDS011;1333;50.958;6.770;2024-03-17T07:09:51;5.27;;;4.53;;
2646;SDS011;1333;50.958;6.770;2024-03-17T07:12:17;5.03;;;4.53;;
2646;SDS011;1333;50.958;6.770;2024-03-17T07:14:42;4.20;;;3.67;;
2646;SDS011;1333;50.958;6.770;2024-03-17T07:17:07;6.73;;;3.93;;
2646;SDS011;1333;50.958;6.770;2024-03-17T07:19:33;4.90;;;4.30;;
2646;SDS011;1333;50.958;6.770;2024-03-17T07:22:00;6.50;;;4.10;;
2646;SDS011;1333;50.958;6.770;2024-03-17T07:24:26;5.23;;;4.70;;
2646;SDS011;1333;50.958;6.770;2024-03-17T07:26:52;5.27;;;4.07;;
2646;SDS011;1333;50.958;6.770;2024-03-17T07:29:18;6.23;;;4.50;;
2646;SDS011;1333;50.958;6.770;2024-03-17T07:31:44;4.63;;;4.10;;
2646;SDS011;1333;50.958;6.770;2024-03-17T07:34:09;6.57;;;4.43;;
2646;SDS011;1333;50.958;6.770;2024-03-17T07:36:35;5.40;;;3.97;;
2646;SDS011;1333;50.958;6.770;2024-03-17T07:39:01;5.03;;;3.63;;
2646;SDS011;1333;50.958;6.770;2024-03-17T07:41:27;4.50;;;3.27;;
2646;SDS011;1333;50.958;6.770;2024-03-17T07:43:53;3.20;;;2.90;;
2646;SDS011;1333;50.958;6.770;2024-03-17T07:46:19;3.87;;;3.00;;
2646;SDS011;1333;50.958;6.770;2024-03-17T07:48:44;3.40;;;3.00;;
2646;SDS011;1333;50.958;6.770;2024-03-17T07:51:11;4.07;;;3.67;;
2646;SDS011;1333;50.958;6.770;2024-03-17T07:53:38;3.90;;;3.13;;
2646;SDS011;1333;50.958;6.770;2024-03-17T07:56:10;2.90;;;2.70;;
2646;SDS011;1333;50.958;6.770;2024-03-17T07:58:40;3.30;;;3.00;;
2646;SDS011;1333;50.958;6.770;2024-03-17T08:01:10;3.27;;;3.07;;
2646;SDS011;1333;50.958;6.770;2024-03-17T08:03:37;7.33;;;3.90;;
2646;SDS011;1333;50.958;6.770;2024-03-17T08:06:09;3.30;;;3.00;;
2646;SDS011;1333;50.958;6.770;2024-03-17T08:08:36;4.90;;;2.97;;
2646;SDS011;1333;50.958;6.770;2024-03-17T08:11:01;3.33;;;3.00;;
2646;SDS011;1333;50.958;6.770;2024-03-17T08:13:28;3.70;;;3.13;;
2646;SDS011;1333;50.958;6.770;2024-03-17T08:15:59;4.07;;;3.77;;
2646;SDS011;1333;50.958;6.770;2024-03-17T08:18:31;2.60;;;2.40;;
2646;SDS011;1333;50.958;6.770;2024-03-17T08:20:59;3.40;;;2.70;;
2646;SDS011;1333;50.958;6.770;2024-03-17T08:23:25;3.30;;;2.70;;
2646;SDS011;1333;50.958;6.770;2024-03-17T08:28:23;4.27;;;2.87;;
2646;SDS011;1333;50.958;6.770;2024-03-17T08:30:52;3.10;;;2.60;;
2646;SDS011;1333;50.958;6.770;2024-03-17T08:33:18;2.80;;;2.60;;
2646;SDS011;1333;50.958;6.770;2024-03-17T08:36:05;3.30;;;2.90;;
2646;SDS011;1333;50.958;6.770;2024-03-17T08:38:35;4.33;;;2.60;;
2646;SDS011;1333;50.958;6.770;2024-03-17T08:43:33;3.17;;;2.87;;
2646;SDS011;1333;50.958;6.770;2024-03-17T08:46:01;2.80;;;2.60;;
2646;SDS011;1333;50.958;6.770;2024-03-17T08:48:30;2.40;;;2.20;;
2646;SDS011;1333;50.958;6.770;2024-03-17T08:50:57;4.87;;;3.10;;
2646;SDS011;1333;50.958;6.770;2024-03-17T08:53:24;3.40;;;3.03;;
2646;SDS011;1333;50.958;6.770;2024-03-17T08:55:49;4.90;;;2.70;;
2646;SDS011;1333;50.958;6.770;2024-03-17T08:58:15;3.63;;;3.33;;
2646;SDS011;1333;50.958;6.770;2024-03-17T09:00:41;2.90;;;2.70;;
2646;SDS011;1333;50.958;6.770;2024-03-17T09:03:07;3.27;;;2.80;;
2646;SDS011;1333;50.958;6.770;2024-03-17T09:05:41;3.20;;;2.83;;
2646;SDS011;1333;50.958;6.770;2024-03-17T09:08:10;2.17;;;1.90;;
2646;SDS011;1333;50.958;6.770;2024-03-17T09:10:43;2.43;;;2.23;;
2646;SDS011;1333;50.958;6.770;2024-03-17T09:13:12;6.37;;;2.70;;
2646;SDS011;1333;50.958;6.770;2024-03-17T09:18:30;3.13;;;2.80;;
2646;SDS011;1333;50.958;6.770;2024-03-17T09:21:04;3.43;;;2.13;;
2646;SDS011;1333;50.958;6.770;2024-03-17T09:23:33;6.00;;;3.23;;
2646;SDS011;1333;50.958;6.770;2024-03-17T09:28:29;4.33;;;3.43;;
2646;SDS011;1333;50.958;6.770;2024-03-17T09:30:56;2.90;;;2.70;;
2646;SDS011;1333;50.958;6.770;2024-03-17T09:33:23;2.77;;;2.57;;
2646;SDS011;1333;50.958;6.770;2024-03-17T09:36:08;4.33;;;3.13;;
2646;SDS011;1333;50.958;6.770;2024-03-17T09:38:38;3.60;;;3.30;;
2646;SDS011;1333;50.958;6.770;2024-03-17T09:41:05;5.20;;;3.27;;
2646;SDS011;1333;50.958;6.770;2024-03-17T09:43:32;3.00;;;2.70;;
2646;SDS011;1333;50.958;6.770;2024-03-17T09:46:01;4.10;;;2.93;;
2646;SDS011;1333;50.958;6.770;2024-03-17T09:48:30;5.57;;;2.80;;
2646;SDS011;1333;50.958;6.770;2024-03-17T09:50:57;3.50;;;2.90;;
2646;SDS011;1333;50.958;6.770;2024-03-17T09:55:50;3.43;;;3.10;;
2646;SDS011;1333;50.958;6.770;2024-03-17T09:58:17;3.60;;;3.30;;
2646;SDS011;1333;50.958;6.770;2024-03-17T10:00:43;3.23;;;2.93;;
2646;SDS011;1333;50.958;6.770;2024-03-17T10:03:09;3.27;;;3.00;;
2646;SDS011;1333;50.958;6.770;2024-03-17T10:05:34;3.03;;;2.83;;
2646;SDS011;1333;50.958;6.770;2024-03-17T10:08:00;3.70;;;3.00;;
2646;SDS011;1333;50.958;6.770;2024-03-17T10:10:27;8.40;;;3.33;;
2646;SDS011;1333;50.958;6.770;2024-03-17T10:12:52;2.90;;;2.70;;
2646;SDS011;1333;50.958;6.770;2024-03-17T10:15:18;5.70;;;2.87;;
2646;SDS011;1333;50.958;6.770;2024-03-17T10:17:48;5.00;;;3.20;;
2646;SDS011;1333;50.958;6.770;2024-03-17T10:23:04;3.80;;;3.50;;
2646;SDS011;1333;50.958;6.770;2024-03-17T10:25:31;3.63;;;3.20;;
2646;SDS011;1333;50.958;6.770;2024-03-17T10:27:58;2.80;;;2.60;;
2646;SDS011;1333;50.958;6.770;2024-03-17T10:30:26;4.37;;;3.37;;
2646;SDS011;1333;50.958;6.770;2024-03-17T10:32:53;3.37;;;3.07;;
2646;SDS011;1333;50.958;6.770;2024-03-17T10:35:38;3.20;;;2.90;;
2646;SDS011;1333;50.958;6.770;2024-03-17T10:38:04;5.57;;;3.73;;
2646;SDS011;1333;50.958;6.770;2024-03-17T10:40:31;3.43;;;3.13;;
2646;SDS011;1333;50.958;6.770;2024-03-17T10:43:04;4.63;;;3.43;;
2646;SDS011;1333;50.958;6.770;2024-03-17T10:45:30;4.13;;;2.87;;
2646;SDS011;1333;50.958;6.770;2024-03-17T10:48:00;3.23;;;2.80;;
2646;SDS011;1333;50.958;6.770;2024-03-17T10:50:29;3.43;;;3.13;;
2646;SDS011;1333;50.958;6.770;2024-03-17T10:52:58;3.47;;;3.17;;
2646;SDS011;1333;50.958;6.770;2024-03-17T10:55:46;5.20;;;3.63;;
2646;SDS011;1333;50.958;6.770;2024-03-17T10:58:31;4.43;;;3.30;;
2646;SDS011;1333;50.958;6.770;2024-03-17T11:01:01;7.37;;;3.80;;
2646;SDS011;1333;50.958;6.770;2024-03-17T11:03:32;3.30;;;2.90;;
2646;SDS011;1333;50.958;6.770;2024-03-17T11:05:58;5.43;;;3.00;;
2646;SDS011;1333;50.958;6.770;2024-03-17T11:08:28;4.57;;;3.00;;
2646;SDS011;1333;50.958;6.770;2024-03-17T11:10:55;3.90;;;3.60;;
2646;SDS011;1333;50.958;6.770;2024-03-17T11:13:30;4.07;;;3.27;;
2646;SDS011;1333;50.958;6.770;2024-03-17T11:15:57;3.33;;;3.03;;
2646;SDS011;1333;50.958;6.770;2024-03-17T11:18:31;3.60;;;3.30;;
2646;SDS011;1333;50.958;6.770;2024-03-17T11:23:32;5.07;;;3.20;;
2646;SDS011;1333;50.958;6.770;2024-03-17T11:25:58;2.97;;;2.77;;
2646;SDS011;1333;50.958;6.770;2024-03-17T11:34:06;4.03;;;3.73;;
2646;SDS011;1333;50.958;6.770;2024-03-17T11:36:53;3.37;;;3.17;;
2646;SDS011;1333;50.958;6.770;2024-03-17T11:39:19;3.60;;;3.07;;
2646;SDS011;1333;50.958;6.770;2024-03-17T11:41:53;4.40;;;3.60;;
2646;SDS011;1333;50.958;6.770;2024-03-17T11:46:53;3.63;;;3.40;;
2646;SDS011;1333;50.958;6.770;2024-03-17T11:51:58;6.07;;;3.90;;
2646;SDS011;1333;50.958;6.770;2024-03-17T11:54:26;4.30;;;3.47;;
2646;SDS011;1333;50.958;6.770;2024-03-17T11:56:54;4.90;;;4.50;;
2646;SDS011;1333;50.958;6.770;2024-03-17T11:59:22;6.60;;;4.00;;
2646;SDS011;1333;50.958;6.770;2024-03-17T12:01:51;3.70;;;3.40;;
2646;SDS011;1333;50.958;6.770;2024-03-17T12:04:17;3.30;;;3.00;;
2646;SDS011;1333;50.958;6.770;2024-03-17T12:06:48;3.07;;;2.83;;
2646;SDS011;1333;50.958;6.770;2024-03-17T12:09:24;3.47;;;3.17;;
2646;SDS011;1333;50.958;6.770;2024-03-17T12:14:26;3.80;;;3.50;;
2646;SDS011;1333;50.958;6.770;2024-03-17T12:16:52;3.73;;;3.20;;
2646;SDS011;1333;50.958;6.770;2024-03-17T12:19:19;4.50;;;3.80;;
2646;SDS011;1333;50.958;6.770;2024-03-17T12:21:47;4.63;;;3.70;;
2646;SDS011;1333;50.958;6.770;2024-03-17T12:24:18;5.53;;;3.43;;
2646;SDS011;1333;50.958;6.770;2024-03-17T12:26:49;4.30;;;3.93;;
2646;SDS011;1333;50.958;6.770;2024-03-17T12:29:30;4.20;;;3.60;;
2646;SDS011;1333;50.958;6.770;2024-03-17T12:32:04;4.20;;;3.13;;
2646;SDS011;1333;50.958;6.770;2024-03-17T12:34:33;4.10;;;3.80;;
2646;SDS011;1333;50.958;6.770;2024-03-17T12:36:59;4.00;;;3.60;;
2646;SDS011;1333;50.958;6.770;2024-03-17T12:39:29;4.60;;;4.20;;
2646;SDS011;1333;50.958;6.770;2024-03-17T12:42:03;3.73;;;3.37;;
2646;SDS011;1333;50.958;6.770;2024-03-17T12:44:34;6.53;;;3.40;;
2646;SDS011;1333;50.958;6.770;2024-03-17T12:47:00;3.17;;;2.87;;
2646;SDS011;1333;50.958;6.770;2024-03-17T12:49:33;3.97;;;3.53;;
2646;SDS011;1333;50.958;6.770;2024-03-17T12:52:00;4.33;;;3.60;;
2646;SDS011;1333;50.958;6.770;2024-03-17T12:54:27;4.00;;;3.67;;
2646;SDS011;1333;50.958;6.770;2024-03-17T12:57:06;6.93;;;4.00;;
2646;SDS011;1333;50.958;6.770;2024-03-17T12:59:50;2.90;;;2.63;;
2646;SDS011;1333;50.958;6.770;2024-03-17T13:02:34;3.77;;;2.63;;
2646;SDS011;1333;50.958;6.770;2024-03-17T13:05:13;6.40;;;3.57;;
2646;SDS011;1333;50.958;6.770;2024-03-17T13:07:41;3.47;;;2.93;;
2646;SDS011;1333;50.958;6.770;2024-03-17T13:10:07;4.53;;;4.03;;
2646;SDS011;1333;50.958;6.770;2024-03-17T13:12:33;3.00;;;2.80;;
2646;SDS011;1333;50.958;6.770;2024-03-17T13:14:59;3.37;;;3.07;;
2646;SDS011;1333;50.958;6.770;2024-03-17T13:17:25;5.13;;;3.60;;
2646;SDS011;1333;50.958;6.770;2024-03-17T13:19:53;4.17;;;3.43;;
2646;SDS011;1333;50.958;6.770;2024-03-17T13:22:19;4.33;;;2.63;;
2646;SDS011;1333;50.958;6.770;2024-03-17T13:24:45;5.13;;;3.80;;
2646;SDS011;1333;50.958;6.770;2024-03-17T13:27:12;3.20;;;2.93;;
2646;SDS011;1333;50.958;6.770;2024-03-17T13:29:39;3.10;;;2.77;;
2646;SDS011;1333;50.958;6.770;2024-03-17T13:32:08;3.13;;;2.70;;
2646;SDS011;1333;50.958;6.770;2024-03-17T13:34:34;3.50;;;3.20;;
2646;SDS011;1333;50.958;6.770;2024-03-17T13:37:00;3.00;;;2.70;;
2646;SDS011;1333;50.958;6.770;2024-03-17T13:39:31;3.17;;;2.87;;
2646;SDS011;1333;50.958;6.770;2024-03-17T13:41:57;3.80;;;2.67;;
2646;SDS011;1333;50.958;6.770;2024-03-17T13:44:32;3.10;;;2.80;;
2646;SDS011;1333;50.958;6.770;2024-03-17T13:46:58;6.60;;;4.00;;
2646;SDS011;1333;50.958;6.770;2024-03-17T13:49:26;5.73;;;5.20;;
2646;SDS011;1333;50.958;6.770;2024-03-17T13:51:52;3.30;;;3.00;;
2646;SDS011;1333;50.958;6.770;2024-03-17T13:54:18;4.90;;;3.40;;
2646;SDS011;1333;50.958;6.770;2024-03-17T13:56:46;4.30;;;2.83;;
2646;SDS011;1333;50.958;6.770;2024-03-17T13:59:15;3.40;;;2.40;;
2646;SDS011;1333;50.958;6.770;2024-03-17T14:01:44;4.40;;;2.90;;
2646;SDS011;1333;50.958;6.770;2024-03-17T14:04:12;4.70;;;2.67;;
2646;SDS011;1333;50.958;6.770;2024-03-17T14:06:40;4.23;;;2.33;;
2646;SDS011;1333;50.958;6.770;2024-03-17T14:09:06;2.80;;;2.53;;
2646;SDS011;1333;50.958;6.770;2024-03-17T14:11:34;2.77;;;2.53;;
2646;SDS011;1333;50.958;6.770;2024-03-17T14:14:00;4.53;;;3.37;;
2646;SDS011;1333;50.958;6.770;2024-03-17T14:16:25;3.10;;;2.90;;
2646;SDS011;1333;50.958;6.770;2024-03-17T14:18:51;4.10;;;3.47;;
2646;SDS011;1333;50.958;6.770;2024-03-17T14:21:16;4.10;;;3.70;;
2646;SDS011;1333;50.958;6.770;2024-03-17T14:23:42;3.50;;;3.20;;
2646;SDS011;1333;50.958;6.770;2024-03-17T14:26:10;5.33;;;2.90;;
2646;SDS011;1333;50.958;6.770;2024-03-17T14:28:36;5.50;;;3.50;;
2646;SDS011;1333;50.958;6.770;2024-03-17T14:31:01;3.20;;;2.60;;
2646;SDS011;1333;50.958;6.770;2024-03-17T14:33:27;4.33;;;3.13;;
2646;SDS011;1333;50.958;6.770;2024-03-17T14:36:01;6.03;;;3.80;;
2646;SDS011;1333;50.958;6.770;2024-03-17T14:38:27;3.30;;;3.00;;
2646;SDS011;1333;50.958;6.770;2024-03-17T14:40:52;5.03;;;3.40;;
2646;SDS011;1333;50.958;6.770;2024-03-17T14:43:21;2.90;;;2.60;;
2646;SDS011;1333;50.958;6.770;2024-03-17T14:45:46;3.87;;;3.17;;
2646;SDS011;1333;50.958;6.770;2024-03-17T14:48:12;3.30;;;3.00;;
2646;SDS011;1333;50.958;6.770;2024-03-17T14:50:40;3.80;;;3.07;;
2646;SDS011;1333;50.958;6.770;2024-03-17T14:53:06;2.67;;;2.47;;
2646;SDS011;1333;50.958;6.770;2024-03-17T14:55:32;3.33;;;2.70;;
2646;SDS011;1333;50.958;6.770;2024-03-17T14:57:58;4.47;;;3.27;;
2646;SDS011;1333;50.958;6.770;2024-03-17T15:00:27;3.73;;;2.97;;
2646;SDS011;1333;50.958;6.770;2024-03-17T15:02:55;3.60;;;3.30;;
2646;SDS011;1333;50.958;6.770;2024-03-17T15:05:21;3.47;;;2.70;;
2646;SDS011;1333;50.958;6.770;2024-03-17T15:07:48;5.50;;;3.10;;
2646;SDS011;1333;50.958;6.770;2024-03-17T15:10:14;3.50;;;3.20;;
2646;SDS011;1333;50.958;6.770;2024-03-17T15:12:40;3.20;;;2.90;;
2646;SDS011;1333;50.958;6.770;2024-03-17T15:15:07;2.83;;;2.63;;
2646;SDS011;1333;50.958;6.770;2024-03-17T15:17:33;3.70;;;3.20;;
2646;SDS011;1333;50.958;6.770;2024-03-17T15:19:59;6.03;;;2.83;;
2646;SDS011;1333;50.958;6.770;2024-03-17T15:22:25;4.53;;;3.43;;
2646;SDS011;1333;50.958;6.770;2024-03-17T15:24:51;5.10;;;3.60;;
2646;SDS011;1333;50.958;6.770;2024-03-17T15:27:17;6.30;;;3.60;;
2646;SDS011;1333;50.958;6.770;2024-03-17T15:29:43;4.13;;;3.30;;
2646;SDS011;1333;50.958;6.770;2024-03-17T15:32:08;5.10;;;3.00;;
2646;SDS011;1333;50.958;6.770;2024-03-17T15:34:36;6.70;;;3.10;;
2646;SDS011;1333;50.958;6.770;2024-03-17T15:37:02;3.03;;;2.63;;
2646;SDS011;1333;50.958;6.770;2024-03-17T15:39:28;2.67;;;2.40;;
2646;SDS011;1333;50.958;6.770;2024-03-17T15:41:54;7.17;;;3.13;;
2646;SDS011;1333;50.958;6.770;2024-03-17T15:44:19;4.10;;;3.33;;
2646;SDS011;1333;50.958;6.770;2024-03-17T15:46:46;5.83;;;3.33;;
2646;SDS011;1333;50.958;6.770;2024-03-17T15:49:13;2.40;;;2.20;;